sensor_id;sensor_type;location;lat;lon;timestamp;P1;durP1;ratioP1;P2;durP2;ratioP2
8803;SDS011;4438;50.890;4.726;2023-07-29T00:00:46;2.50;;;2.20;;
8803;SDS011;4438;50.890;4.726;2023-07-29T00:03:12;2.27;;;2.07;;
8803;SDS011;4438;50.890;4.726;2023-07-29T00:05:38;2.10;;;1.90;;
8803;SDS011;4438;50.890;4.726;2023-07-29T00:08:05;2.70;;;2.50;;
8803;SDS011;4438;50.890;4.726;2023-07-29T00:10:31;2.70;;;2.50;;
8803;SDS011;4438;50.890;4.726;2023-07-29T00:12:58;2.93;;;2.17;;
8803;SDS011;4438;50.890;4.726;2023-07-29T00:15:24;2.40;;;2.20;;
8803;SDS011;4438;50.890;4.726;2023-07-29T00:17:50;2.17;;;2.07;;
8803;SDS011;4438;50.890;4.726;2023-07-29T00:20:16;2.20;;;1.97;;
8803;SDS011;4438;50.890;4.726;2023-07-29T00:22:43;2.57;;;2.37;;
8803;SDS011;4438;50.890;4.726;2023-07-29T00:25:09;2.83;;;2.20;;
8803;SDS011;4438;50.890;4.726;2023-07-29T00:27:35;2.53;;;2.10;;
8803;SDS011;4438;50.890;4.726;2023-07-29T00:30:01;2.47;;;2.27;;
8803;SDS011;4438;50.890;4.726;2023-07-29T00:32:28;2.43;;;2.23;;
8803;SDS011;4438;50.890;4.726;2023-07-29T00:34:56;2.47;;;2.27;;
8803;SDS011;4438;50.890;4.726;2023-07-29T00:37:22;2.37;;;2.17;;
8803;SDS011;4438;50.890;4.726;2023-07-29T00:39:48;2.77;;;2.23;;
8803;SDS011;4438;50.890;4.726;2023-07-29T00:42:14;2.47;;;2.27;;
8803;SDS011;4438;50.890;4.726;2023-07-29T00:44:40;2.40;;;2.20;;
8803;SDS011;4438;50.890;4.726;2023-07-29T00:47:06;2.37;;;2.00;;
8803;SDS011;4438;50.890;4.726;2023-07-29T00:49:32;2.40;;;2.23;;
8803;SDS011;4438;50.890;4.726;2023-07-29T00:51:59;2.57;;;2.10;;
8803;SDS011;4438;50.890;4.726;2023-07-29T00:54:25;2.47;;;2.03;;
8803;SDS011;4438;50.890;4.726;2023-07-29T00:56:51;2.17;;;1.97;;
8803;SDS011;4438;50.890;4.726;2023-07-29T00:59:17;3.50;;;1.90;;
8803;SDS011;4438;50.890;4.726;2023-07-29T01:01:43;2.70;;;2.17;;
8803;SDS011;4438;50.890;4.726;2023-07-29T01:04:09;2.10;;;1.90;;
8803;SDS011;4438;50.890;4.726;2023-07-29T01:09:24;2.00;;;1.80;;
8803;SDS011;4438;50.890;4.726;2023-07-29T01:12:02;2.00;;;1.90;;
8803;SDS011;4438;50.890;4.726;2023-07-29T01:14:37;3.20;;;2.10;;
8803;SDS011;4438;50.890;4.726;2023-07-29T01:17:07;1.80;;;1.70;;
8803;SDS011;4438;50.890;4.726;2023-07-29T01:22:19;2.50;;;1.93;;
8803;SDS011;4438;50.890;4.726;2023-07-29T01:24:46;1.80;;;1.60;;
8803;SDS011;4438;50.890;4.726;2023-07-29T01:27:12;2.27;;;2.00;;
8803;SDS011;4438;50.890;4.726;2023-07-29T01:29:38;2.00;;;1.90;;
8803;SDS011;4438;50.890;4.726;2023-07-29T01:32:07;2.93;;;2.27;;
8803;SDS011;4438;50.890;4.726;2023-07-29T01:34:52;2.10;;;1.60;;
8803;SDS011;4438;50.890;4.726;2023-07-29T01:37:22;1.83;;;1.67;;
8803;SDS011;4438;50.890;4.726;2023-07-29T01:39:51;1.80;;;1.70;;
8803;SDS011;4438;50.890;4.726;2023-07-29T01:42:20;2.17;;;1.63;;
8803;SDS011;4438;50.890;4.726;2023-07-29T01:44:46;1.90;;;1.80;;
8803;SDS011;4438;50.890;4.726;2023-07-29T01:47:12;1.73;;;1.50;;
8803;SDS011;4438;50.890;4.726;2023-07-29T01:49:38;2.17;;;1.97;;
8803;SDS011;4438;50.890;4.726;2023-07-29T01:52:05;2.20;;;1.87;;
8803;SDS011;4438;50.890;4.726;2023-07-29T01:54:31;1.70;;;1.60;;
8803;SDS011;4438;50.890;4.726;2023-07-29T01:56:57;2.23;;;1.80;;
8803;SDS011;4438;50.890;4.726;2023-07-29T01:59:23;2.17;;;1.87;;
8803;SDS011;4438;50.890;4.726;2023-07-29T02:01:49;2.30;;;1.80;;
8803;SDS011;4438;50.890;4.726;2023-07-29T02:04:15;2.40;;;1.80;;
8803;SDS011;4438;50.890;4.726;2023-07-29T02:06:41;2.00;;;1.80;;
8803;SDS011;4438;50.890;4.726;2023-07-29T02:09:07;1.93;;;1.70;;
8803;SDS011;4438;50.890;4.726;2023-07-29T02:11:33;2.20;;;2.00;;
8803;SDS011;4438;50.890;4.726;2023-07-29T02:13:59;3.50;;;2.10;;
8803;SDS011;4438;50.890;4.726;2023-07-29T02:16:25;3.23;;;1.80;;
8803;SDS011;4438;50.890;4.726;2023-07-29T02:18:52;2.60;;;1.77;;
8803;SDS011;4438;50.890;4.726;2023-07-29T02:21:18;2.93;;;1.73;;
8803;SDS011;4438;50.890;4.726;2023-07-29T02:23:44;2.10;;;1.90;;
8803;SDS011;4438;50.890;4.726;2023-07-29T02:26:10;2.30;;;2.10;;
8803;SDS011;4438;50.890;4.726;2023-07-29T02:28:36;2.20;;;2.00;;
8803;SDS011;4438;50.890;4.726;2023-07-29T02:31:20;2.27;;;1.50;;
8803;SDS011;4438;50.890;4.726;2023-07-29T02:33:46;2.57;;;2.30;;
8803;SDS011;4438;50.890;4.726;2023-07-29T02:36:12;2.10;;;1.90;;
8803;SDS011;4438;50.890;4.726;2023-07-29T02:38:42;3.40;;;2.20;;
8803;SDS011;4438;50.890;4.726;2023-07-29T02:41:08;2.20;;;1.80;;
8803;SDS011;4438;50.890;4.726;2023-07-29T02:43:35;2.83;;;2.13;;
8803;SDS011;4438;50.890;4.726;2023-07-29T02:46:02;2.60;;;2.40;;
8803;SDS011;4438;50.890;4.726;2023-07-29T02:48:28;4.07;;;2.10;;
8803;SDS011;4438;50.890;4.726;2023-07-29T02:50:54;2.80;;;1.90;;
8803;SDS011;4438;50.890;4.726;2023-07-29T02:53:21;2.40;;;2.20;;
8803;SDS011;4438;50.890;4.726;2023-07-29T02:55:47;2.40;;;2.20;;
8803;SDS011;4438;50.890;4.726;2023-07-29T02:58:13;2.37;;;2.00;;
8803;SDS011;4438;50.890;4.726;2023-07-29T03:00:40;2.43;;;2.03;;
8803;SDS011;4438;50.890;4.726;2023-07-29T03:03:10;2.30;;;2.10;;
8803;SDS011;4438;50.890;4.726;2023-07-29T03:05:36;2.37;;;2.03;;
8803;SDS011;4438;50.890;4.726;2023-07-29T03:08:03;2.43;;;2.23;;
8803;SDS011;4438;50.890;4.726;2023-07-29T03:10:29;2.30;;;2.10;;
8803;SDS011;4438;50.890;4.726;2023-07-29T03:12:55;2.50;;;2.20;;
8803;SDS011;4438;50.890;4.726;2023-07-29T03:15:25;2.60;;;2.33;;
8803;SDS011;4438;50.890;4.726;2023-07-29T03:17:54;2.33;;;2.20;;
8803;SDS011;4438;50.890;4.726;2023-07-29T03:20:20;3.40;;;2.13;;
8803;SDS011;4438;50.890;4.726;2023-07-29T03:22:46;2.83;;;2.20;;
8803;SDS011;4438;50.890;4.726;2023-07-29T03:25:13;2.43;;;2.10;;
8803;SDS011;4438;50.890;4.726;2023-07-29T03:27:39;2.97;;;2.00;;
8803;SDS011;4438;50.890;4.726;2023-07-29T03:30:05;2.67;;;2.40;;
8803;SDS011;4438;50.890;4.726;2023-07-29T03:32:32;3.87;;;2.23;;
8803;SDS011;4438;50.890;4.726;2023-07-29T03:34:58;2.37;;;2.17;;
8803;SDS011;4438;50.890;4.726;2023-07-29T03:37:24;2.67;;;2.47;;
8803;SDS011;4438;50.890;4.726;2023-07-29T03:39:50;2.10;;;1.90;;
8803;SDS011;4438;50.890;4.726;2023-07-29T03:42:17;3.90;;;2.50;;
8803;SDS011;4438;50.890;4.726;2023-07-29T03:44:43;2.40;;;2.20;;
8803;SDS011;4438;50.890;4.726;2023-07-29T03:47:09;3.77;;;2.30;;
8803;SDS011;4438;50.890;4.726;2023-07-29T03:49:35;2.30;;;2.10;;
8803;SDS011;4438;50.890;4.726;2023-07-29T03:52:01;2.30;;;2.10;;
8803;SDS011;4438;50.890;4.726;2023-07-29T03:54:27;2.47;;;2.10;;
8803;SDS011;4438;50.890;4.726;2023-07-29T03:56:53;2.60;;;2.00;;
8803;SDS011;4438;50.890;4.726;2023-07-29T03:59:19;2.73;;;2.10;;
8803;SDS011;4438;50.890;4.726;2023-07-29T04:01:47;2.53;;;2.10;;
8803;SDS011;4438;50.890;4.726;2023-07-29T04:04:13;2.43;;;2.10;;
8803;SDS011;4438;50.890;4.726;2023-07-29T04:06:40;2.40;;;2.20;;
8803;SDS011;4438;50.890;4.726;2023-07-29T04:09:06;2.47;;;2.27;;
8803;SDS011;4438;50.890;4.726;2023-07-29T04:11:33;3.60;;;2.30;;
8803;SDS011;4438;50.890;4.726;2023-07-29T04:13:59;2.90;;;2.40;;
8803;SDS011;4438;50.890;4.726;2023-07-29T04:16:25;2.47;;;2.27;;
8803;SDS011;4438;50.890;4.726;2023-07-29T04:18:51;2.40;;;2.20;;
8803;SDS011;4438;50.890;4.726;2023-07-29T04:21:17;3.13;;;2.27;;
8803;SDS011;4438;50.890;4.726;2023-07-29T04:23:43;2.60;;;2.30;;
8803;SDS011;4438;50.890;4.726;2023-07-29T04:26:09;2.93;;;2.63;;
8803;SDS011;4438;50.890;4.726;2023-07-29T04:28:35;3.40;;;2.40;;
8803;SDS011;4438;50.890;4.726;2023-07-29T04:31:01;3.13;;;2.50;;
8803;SDS011;4438;50.890;4.726;2023-07-29T04:33:29;3.67;;;2.50;;
8803;SDS011;4438;50.890;4.726;2023-07-29T04:35:56;2.70;;;2.30;;
8803;SDS011;4438;50.890;4.726;2023-07-29T04:38:23;2.77;;;2.50;;
8803;SDS011;4438;50.890;4.726;2023-07-29T04:40:49;3.40;;;2.23;;
8803;SDS011;4438;50.890;4.726;2023-07-29T04:43:15;2.60;;;2.20;;
8803;SDS011;4438;50.890;4.726;2023-07-29T04:45:42;3.30;;;2.40;;
8803;SDS011;4438;50.890;4.726;2023-07-29T04:48:08;2.93;;;2.50;;
8803;SDS011;4438;50.890;4.726;2023-07-29T04:50:34;5.17;;;2.70;;
8803;SDS011;4438;50.890;4.726;2023-07-29T04:53:00;2.93;;;2.40;;
8803;SDS011;4438;50.890;4.726;2023-07-29T04:55:26;2.80;;;2.40;;
8803;SDS011;4438;50.890;4.726;2023-07-29T04:57:52;2.37;;;2.17;;
8803;SDS011;4438;50.890;4.726;2023-07-29T05:00:19;3.23;;;2.53;;
8803;SDS011;4438;50.890;4.726;2023-07-29T05:02:45;2.93;;;2.37;;
8803;SDS011;4438;50.890;4.726;2023-07-29T05:05:11;2.83;;;2.30;;
8803;SDS011;4438;50.890;4.726;2023-07-29T05:07:37;3.27;;;2.47;;
8803;SDS011;4438;50.890;4.726;2023-07-29T05:10:03;3.00;;;2.43;;
8803;SDS011;4438;50.890;4.726;2023-07-29T05:12:29;2.50;;;2.30;;
8803;SDS011;4438;50.890;4.726;2023-07-29T05:14:57;2.93;;;2.23;;
8803;SDS011;4438;50.890;4.726;2023-07-29T05:17:23;2.30;;;2.10;;
8803;SDS011;4438;50.890;4.726;2023-07-29T05:19:49;2.40;;;2.20;;
8803;SDS011;4438;50.890;4.726;2023-07-29T05:22:15;2.50;;;2.30;;
8803;SDS011;4438;50.890;4.726;2023-07-29T05:24:41;2.27;;;2.07;;
8803;SDS011;4438;50.890;4.726;2023-07-29T05:27:07;3.30;;;2.20;;
8803;SDS011;4438;50.890;4.726;2023-07-29T05:29:33;2.30;;;2.10;;
8803;SDS011;4438;50.890;4.726;2023-07-29T05:31:59;3.97;;;2.17;;
8803;SDS011;4438;50.890;4.726;2023-07-29T05:34:26;3.00;;;2.37;;
8803;SDS011;4438;50.890;4.726;2023-07-29T05:36:52;2.80;;;2.27;;
8803;SDS011;4438;50.890;4.726;2023-07-29T05:39:18;2.80;;;1.90;;
8803;SDS011;4438;50.890;4.726;2023-07-29T05:41:44;2.30;;;2.10;;
8803;SDS011;4438;50.890;4.726;2023-07-29T05:44:11;2.30;;;2.00;;
8803;SDS011;4438;50.890;4.726;2023-07-29T05:46:37;2.40;;;2.20;;
8803;SDS011;4438;50.890;4.726;2023-07-29T05:49:03;2.60;;;2.40;;
8803;SDS011;4438;50.890;4.726;2023-07-29T05:51:29;2.93;;;1.90;;
8803;SDS011;4438;50.890;4.726;2023-07-29T05:53:55;2.30;;;2.10;;
8803;SDS011;4438;50.890;4.726;2023-07-29T05:56:21;2.67;;;2.10;;
8803;SDS011;4438;50.890;4.726;2023-07-29T05:58:47;2.70;;;2.13;;
8803;SDS011;4438;50.890;4.726;2023-07-29T06:01:13;3.23;;;1.90;;
8803;SDS011;4438;50.890;4.726;2023-07-29T06:03:39;3.03;;;2.03;;
8803;SDS011;4438;50.890;4.726;2023-07-29T06:06:05;2.57;;;2.20;;
8803;SDS011;4438;50.890;4.726;2023-07-29T06:08:31;3.43;;;2.20;;
8803;SDS011;4438;50.890;4.726;2023-07-29T06:10:59;2.13;;;1.90;;
8803;SDS011;4438;50.890;4.726;2023-07-29T06:13:26;2.40;;;1.80;;
8803;SDS011;4438;50.890;4.726;2023-07-29T06:15:52;2.27;;;1.70;;
8803;SDS011;4438;50.890;4.726;2023-07-29T06:18:18;2.40;;;1.80;;
8803;SDS011;4438;50.890;4.726;2023-07-29T06:20:44;2.33;;;2.10;;
8803;SDS011;4438;50.890;4.726;2023-07-29T06:23:10;1.93;;;1.80;;
8803;SDS011;4438;50.890;4.726;2023-07-29T06:25:36;2.47;;;1.80;;
8803;SDS011;4438;50.890;4.726;2023-07-29T06:28:02;2.97;;;1.67;;
8803;SDS011;4438;50.890;4.726;2023-07-29T06:30:29;2.03;;;1.67;;
8803;SDS011;4438;50.890;4.726;2023-07-29T06:32:56;2.70;;;2.10;;
8803;SDS011;4438;50.890;4.726;2023-07-29T06:35:22;2.00;;;1.73;;
8803;SDS011;4438;50.890;4.726;2023-07-29T06:37:48;1.83;;;1.73;;
8803;SDS011;4438;50.890;4.726;2023-07-29T06:40:15;2.97;;;2.30;;
8803;SDS011;4438;50.890;4.726;2023-07-29T06:42:41;2.63;;;1.80;;
8803;SDS011;4438;50.890;4.726;2023-07-29T06:45:07;3.30;;;1.87;;
8803;SDS011;4438;50.890;4.726;2023-07-29T06:47:33;2.03;;;1.60;;
8803;SDS011;4438;50.890;4.726;2023-07-29T06:49:59;2.63;;;1.60;;
8803;SDS011;4438;50.890;4.726;2023-07-29T06:52:26;3.33;;;1.87;;
8803;SDS011;4438;50.890;4.726;2023-07-29T06:54:52;3.10;;;1.80;;
8803;SDS011;4438;50.890;4.726;2023-07-29T06:57:18;2.53;;;1.83;;
8803;SDS011;4438;50.890;4.726;2023-07-29T06:59:44;3.47;;;1.80;;
8803;SDS011;4438;50.890;4.726;2023-07-29T07:02:10;1.93;;;1.73;;
8803;SDS011;4438;50.890;4.726;2023-07-29T07:04:36;2.00;;;1.80;;
8803;SDS011;4438;50.890;4.726;2023-07-29T07:07:03;1.83;;;1.67;;
8803;SDS011;4438;50.890;4.726;2023-07-29T07:09:29;1.90;;;1.60;;
8803;SDS011;4438;50.890;4.726;2023-07-29T07:11:55;2.07;;;1.80;;
8803;SDS011;4438;50.890;4.726;2023-07-29T07:14:21;4.37;;;1.80;;
8803;SDS011;4438;50.890;4.726;2023-07-29T07:16:47;1.43;;;1.33;;
8803;SDS011;4438;50.890;4.726;2023-07-29T07:19:13;1.70;;;1.60;;
8803;SDS011;4438;50.890;4.726;2023-07-29T07:21:39;1.73;;;1.63;;
8803;SDS011;4438;50.890;4.726;2023-07-29T07:24:05;2.53;;;1.63;;
8803;SDS011;4438;50.890;4.726;2023-07-29T07:26:32;1.40;;;1.30;;
8803;SDS011;4438;50.890;4.726;2023-07-29T07:28:58;2.53;;;1.50;;
8803;SDS011;4438;50.890;4.726;2023-07-29T07:31:24;1.97;;;1.77;;
8803;SDS011;4438;50.890;4.726;2023-07-29T07:33:50;1.60;;;1.50;;
8803;SDS011;4438;50.890;4.726;2023-07-29T07:36:16;1.60;;;1.50;;
8803;SDS011;4438;50.890;4.726;2023-07-29T07:38:42;2.70;;;1.67;;
8803;SDS011;4438;50.890;4.726;2023-07-29T07:41:08;2.07;;;1.70;;
8803;SDS011;4438;50.890;4.726;2023-07-29T07:43:34;1.60;;;1.50;;
8803;SDS011;4438;50.890;4.726;2023-07-29T07:46:01;1.77;;;1.60;;
8803;SDS011;4438;50.890;4.726;2023-07-29T07:48:27;2.13;;;1.80;;
8803;SDS011;4438;50.890;4.726;2023-07-29T07:50:53;1.90;;;1.57;;
8803;SDS011;4438;50.890;4.726;2023-07-29T07:53:19;2.53;;;1.50;;
8803;SDS011;4438;50.890;4.726;2023-07-29T07:55:46;1.47;;;1.37;;
8803;SDS011;4438;50.890;4.726;2023-07-29T07:58:12;1.70;;;1.50;;
8803;SDS011;4438;50.890;4.726;2023-07-29T08:00:38;1.77;;;1.60;;
8803;SDS011;4438;50.890;4.726;2023-07-29T08:03:04;1.70;;;1.53;;
8803;SDS011;4438;50.890;4.726;2023-07-29T08:05:30;3.07;;;1.50;;
8803;SDS011;4438;50.890;4.726;2023-07-29T08:07:57;1.73;;;1.63;;
8803;SDS011;4438;50.890;4.726;2023-07-29T08:10:23;1.50;;;1.40;;
8803;SDS011;4438;50.890;4.726;2023-07-29T08:12:49;3.10;;;1.57;;
8803;SDS011;4438;50.890;4.726;2023-07-29T08:15:15;1.70;;;1.60;;
8803;SDS011;4438;50.890;4.726;2023-07-29T08:17:41;1.80;;;1.70;;
8803;SDS011;4438;50.890;4.726;2023-07-29T08:20:08;1.90;;;1.67;;
8803;SDS011;4438;50.890;4.726;2023-07-29T08:22:34;2.00;;;1.60;;
8803;SDS011;4438;50.890;4.726;2023-07-29T08:25:00;1.73;;;1.63;;
8803;SDS011;4438;50.890;4.726;2023-07-29T08:27:26;1.63;;;1.47;;
8803;SDS011;4438;50.890;4.726;2023-07-29T08:29:53;1.90;;;1.70;;
8803;SDS011;4438;50.890;4.726;2023-07-29T08:32:19;1.50;;;1.40;;
8803;SDS011;4438;50.890;4.726;2023-07-29T08:34:45;2.43;;;1.60;;
8803;SDS011;4438;50.890;4.726;2023-07-29T08:37:12;1.80;;;1.43;;
8803;SDS011;4438;50.890;4.726;2023-07-29T08:39:38;1.67;;;1.57;;
8803;SDS011;4438;50.890;4.726;2023-07-29T08:42:04;2.00;;;1.70;;
8803;SDS011;4438;50.890;4.726;2023-07-29T08:44:41;1.90;;;1.70;;
8803;SDS011;4438;50.890;4.726;2023-07-29T08:47:07;1.70;;;1.60;;
8803;SDS011;4438;50.890;4.726;2023-07-29T08:49:33;2.20;;;1.60;;
8803;SDS011;4438;50.890;4.726;2023-07-29T08:52:00;2.43;;;1.47;;
8803;SDS011;4438;50.890;4.726;2023-07-29T08:54:26;2.67;;;1.90;;
8803;SDS011;4438;50.890;4.726;2023-07-29T08:56:53;2.03;;;1.83;;
8803;SDS011;4438;50.890;4.726;2023-07-29T08:59:19;2.23;;;1.63;;
8803;SDS011;4438;50.890;4.726;2023-07-29T09:01:46;3.53;;;1.60;;
8803;SDS011;4438;50.890;4.726;2023-07-29T09:04:12;1.80;;;1.70;;
8803;SDS011;4438;50.890;4.726;2023-07-29T09:06:39;3.23;;;1.43;;
8803;SDS011;4438;50.890;4.726;2023-07-29T09:09:05;2.00;;;1.80;;
8803;SDS011;4438;50.890;4.726;2023-07-29T09:11:33;3.50;;;1.90;;
8803;SDS011;4438;50.890;4.726;2023-07-29T09:13:59;1.83;;;1.53;;
8803;SDS011;4438;50.890;4.726;2023-07-29T09:16:25;2.10;;;1.90;;
8803;SDS011;4438;50.890;4.726;2023-07-29T09:18:52;1.93;;;1.70;;
8803;SDS011;4438;50.890;4.726;2023-07-29T09:21:22;2.50;;;1.77;;
8803;SDS011;4438;50.890;4.726;2023-07-29T09:23:50;1.97;;;1.50;;
8803;SDS011;4438;50.890;4.726;2023-07-29T09:26:23;1.93;;;1.60;;
8803;SDS011;4438;50.890;4.726;2023-07-29T09:28:51;1.70;;;1.60;;
8803;SDS011;4438;50.890;4.726;2023-07-29T09:31:24;1.93;;;1.83;;
8803;SDS011;4438;50.890;4.726;2023-07-29T09:34:03;2.80;;;1.77;;
8803;SDS011;4438;50.890;4.726;2023-07-29T09:36:31;2.40;;;1.60;;
8803;SDS011;4438;50.890;4.726;2023-07-29T09:38:57;3.60;;;1.63;;
8803;SDS011;4438;50.890;4.726;2023-07-29T09:41:27;5.53;;;2.30;;
8803;SDS011;4438;50.890;4.726;2023-07-29T09:43:57;2.27;;;2.07;;
8803;SDS011;4438;50.890;4.726;2023-07-29T09:46:24;3.40;;;1.80;;
8803;SDS011;4438;50.890;4.726;2023-07-29T09:48:52;2.10;;;1.73;;
8803;SDS011;4438;50.890;4.726;2023-07-29T09:51:22;3.00;;;1.80;;
8803;SDS011;4438;50.890;4.726;2023-07-29T09:53:49;2.10;;;1.90;;
8803;SDS011;4438;50.890;4.726;2023-07-29T09:56:16;2.87;;;2.00;;
8803;SDS011;4438;50.890;4.726;2023-07-29T09:58:43;2.23;;;2.00;;
8803;SDS011;4438;50.890;4.726;2023-07-29T10:01:10;3.60;;;1.80;;
8803;SDS011;4438;50.890;4.726;2023-07-29T10:03:37;2.80;;;1.90;;
8803;SDS011;4438;50.890;4.726;2023-07-29T10:06:03;2.10;;;1.90;;
8803;SDS011;4438;50.890;4.726;2023-07-29T10:08:30;3.60;;;2.23;;
8803;SDS011;4438;50.890;4.726;2023-07-29T10:11:05;2.00;;;1.90;;
8803;SDS011;4438;50.890;4.726;2023-07-29T10:13:32;2.47;;;2.20;;
8803;SDS011;4438;50.890;4.726;2023-07-29T10:15:58;2.47;;;2.20;;
8803;SDS011;4438;50.890;4.726;2023-07-29T10:18:27;2.63;;;2.20;;
8803;SDS011;4438;50.890;4.726;2023-07-29T10:20:54;2.13;;;1.93;;
8803;SDS011;4438;50.890;4.726;2023-07-29T10:23:22;3.00;;;2.30;;
8803;SDS011;4438;50.890;4.726;2023-07-29T10:25:58;2.00;;;1.90;;
8803;SDS011;4438;50.890;4.726;2023-07-29T10:28:25;3.50;;;2.17;;
8803;SDS011;4438;50.890;4.726;2023-07-29T10:30:51;2.13;;;2.03;;
8803;SDS011;4438;50.890;4.726;2023-07-29T10:33:18;1.80;;;1.70;;
8803;SDS011;4438;50.890;4.726;2023-07-29T10:35:44;2.83;;;2.10;;
8803;SDS011;4438;50.890;4.726;2023-07-29T10:38:10;2.27;;;2.03;;
8803;SDS011;4438;50.890;4.726;2023-07-29T10:40:43;2.50;;;2.30;;
8803;SDS011;4438;50.890;4.726;2023-07-29T10:43:09;1.93;;;1.80;;
8803;SDS011;4438;50.890;4.726;2023-07-29T10:45:36;2.27;;;2.07;;
8803;SDS011;4438;50.890;4.726;2023-07-29T10:48:13;9.83;;;2.90;;
8803;SDS011;4438;50.890;4.726;2023-07-29T10:50:39;3.63;;;2.30;;
8803;SDS011;4438;50.890;4.726;2023-07-29T10:53:05;2.77;;;2.47;;
8803;SDS011;4438;50.890;4.726;2023-07-29T10:55:32;2.30;;;2.10;;
8803;SDS011;4438;50.890;4.726;2023-07-29T10:58:14;2.50;;;2.30;;
8803;SDS011;4438;50.890;4.726;2023-07-29T11:00:44;2.60;;;2.40;;
8803;SDS011;4438;50.890;4.726;2023-07-29T11:03:12;2.77;;;2.57;;
8803;SDS011;4438;50.890;4.726;2023-07-29T11:08:28;3.03;;;2.67;;
8803;SDS011;4438;50.890;4.726;2023-07-29T11:11:12;3.03;;;2.80;;
8803;SDS011;4438;50.890;4.726;2023-07-29T11:13:38;2.90;;;2.70;;
8803;SDS011;4438;50.890;4.726;2023-07-29T11:16:04;2.83;;;2.57;;
8803;SDS011;4438;50.890;4.726;2023-07-29T11:18:32;2.83;;;2.57;;
8803;SDS011;4438;50.890;4.726;2023-07-29T11:21:02;2.60;;;2.40;;
8803;SDS011;4438;50.890;4.726;2023-07-29T11:23:29;2.40;;;2.20;;
8803;SDS011;4438;50.890;4.726;2023-07-29T11:25:55;2.97;;;2.40;;
8803;SDS011;4438;50.890;4.726;2023-07-29T11:28:22;2.90;;;2.70;;
8803;SDS011;4438;50.890;4.726;2023-07-29T11:30:49;2.57;;;2.37;;
8803;SDS011;4438;50.890;4.726;2023-07-29T11:33:19;3.17;;;2.80;;
8803;SDS011;4438;50.890;4.726;2023-07-29T11:35:46;2.80;;;2.60;;
8803;SDS011;4438;50.890;4.726;2023-07-29T11:38:15;3.90;;;2.70;;
8803;SDS011;4438;50.890;4.726;2023-07-29T11:40:42;4.73;;;3.23;;
8803;SDS011;4438;50.890;4.726;2023-07-29T11:43:08;2.80;;;2.60;;
8803;SDS011;4438;50.890;4.726;2023-07-29T11:45:34;2.80;;;2.60;;
8803;SDS011;4438;50.890;4.726;2023-07-29T11:48:03;2.93;;;2.73;;
8803;SDS011;4438;50.890;4.726;2023-07-29T11:50:29;3.67;;;2.60;;
8803;SDS011;4438;50.890;4.726;2023-07-29T11:52:55;3.23;;;2.93;;
8803;SDS011;4438;50.890;4.726;2023-07-29T11:55:21;3.00;;;2.80;;
8803;SDS011;4438;50.890;4.726;2023-07-29T11:57:48;2.70;;;2.50;;
8803;SDS011;4438;50.890;4.726;2023-07-29T12:00:16;2.80;;;2.60;;
8803;SDS011;4438;50.890;4.726;2023-07-29T12:02:43;3.13;;;2.60;;
8803;SDS011;4438;50.890;4.726;2023-07-29T12:05:10;2.70;;;2.17;;
8803;SDS011;4438;50.890;4.726;2023-07-29T12:07:40;2.50;;;2.30;;
8803;SDS011;4438;50.890;4.726;2023-07-29T12:10:07;2.83;;;2.63;;
8803;SDS011;4438;50.890;4.726;2023-07-29T12:12:33;3.83;;;2.77;;
8803;SDS011;4438;50.890;4.726;2023-07-29T12:15:03;2.57;;;2.37;;
8803;SDS011;4438;50.890;4.726;2023-07-29T12:17:29;2.63;;;2.43;;
8803;SDS011;4438;50.890;4.726;2023-07-29T12:19:55;2.87;;;2.67;;
8803;SDS011;4438;50.890;4.726;2023-07-29T12:22:21;2.73;;;2.53;;
8803;SDS011;4438;50.890;4.726;2023-07-29T12:24:48;2.10;;;2.00;;
8803;SDS011;4438;50.890;4.726;2023-07-29T12:27:17;2.53;;;2.33;;
8803;SDS011;4438;50.890;4.726;2023-07-29T12:29:43;2.27;;;2.17;;
8803;SDS011;4438;50.890;4.726;2023-07-29T12:32:11;2.50;;;2.30;;
8803;SDS011;4438;50.890;4.726;2023-07-29T12:34:38;2.40;;;2.20;;
8803;SDS011;4438;50.890;4.726;2023-07-29T12:37:04;2.47;;;2.10;;
8803;SDS011;4438;50.890;4.726;2023-07-29T12:39:35;2.90;;;2.60;;
8803;SDS011;4438;50.890;4.726;2023-07-29T12:42:06;2.87;;;2.67;;
8803;SDS011;4438;50.890;4.726;2023-07-29T12:44:32;2.57;;;2.37;;
8803;SDS011;4438;50.890;4.726;2023-07-29T12:47:02;2.63;;;2.43;;
8803;SDS011;4438;50.890;4.726;2023-07-29T12:49:29;3.20;;;2.97;;
8803;SDS011;4438;50.890;4.726;2023-07-29T12:51:56;3.17;;;2.97;;
8803;SDS011;4438;50.890;4.726;2023-07-29T12:54:22;3.37;;;3.07;;
8803;SDS011;4438;50.890;4.726;2023-07-29T12:56:48;3.00;;;2.67;;
8803;SDS011;4438;50.890;4.726;2023-07-29T12:59:14;5.07;;;2.90;;
8803;SDS011;4438;50.890;4.726;2023-07-29T13:01:40;3.40;;;3.10;;
8803;SDS011;4438;50.890;4.726;2023-07-29T13:04:06;4.07;;;3.40;;
8803;SDS011;4438;50.890;4.726;2023-07-29T13:06:32;3.23;;;3.00;;
8803;SDS011;4438;50.890;4.726;2023-07-29T13:08:58;3.43;;;3.13;;
8803;SDS011;4438;50.890;4.726;2023-07-29T13:11:24;4.57;;;3.20;;
8803;SDS011;4438;50.890;4.726;2023-07-29T13:13:51;3.43;;;2.87;;
8803;SDS011;4438;50.890;4.726;2023-07-29T13:16:17;3.30;;;3.00;;
8803;SDS011;4438;50.890;4.726;2023-07-29T13:18:43;3.10;;;2.80;;
8803;SDS011;4438;50.890;4.726;2023-07-29T13:21:10;2.80;;;2.60;;
8803;SDS011;4438;50.890;4.726;2023-07-29T13:23:36;2.40;;;2.20;;
8803;SDS011;4438;50.890;4.726;2023-07-29T13:26:02;2.50;;;2.30;;
8803;SDS011;4438;50.890;4.726;2023-07-29T13:28:28;2.00;;;1.90;;
8803;SDS011;4438;50.890;4.726;2023-07-29T13:30:54;2.70;;;2.30;;
8803;SDS011;4438;50.890;4.726;2023-07-29T13:33:20;2.73;;;2.00;;
8803;SDS011;4438;50.890;4.726;2023-07-29T13:35:46;2.13;;;2.00;;
8803;SDS011;4438;50.890;4.726;2023-07-29T13:38:12;2.40;;;2.20;;
8803;SDS011;4438;50.890;4.726;2023-07-29T13:40:38;1.95;;;1.85;;
8803;SDS011;4438;50.890;4.726;2023-07-29T13:43:04;1.90;;;1.80;;
8803;SDS011;4438;50.890;4.726;2023-07-29T13:45:31;2.20;;;2.00;;
8803;SDS011;4438;50.890;4.726;2023-07-29T13:47:57;2.10;;;2.00;;
8803;SDS011;4438;50.890;4.726;2023-07-29T13:50:23;2.00;;;1.90;;
8803;SDS011;4438;50.890;4.726;2023-07-29T13:52:49;2.63;;;2.10;;
8803;SDS011;4438;50.890;4.726;2023-07-29T13:55:15;2.10;;;2.00;;
8803;SDS011;4438;50.890;4.726;2023-07-29T13:57:41;2.10;;;2.00;;
8803;SDS011;4438;50.890;4.726;2023-07-29T14:00:07;2.20;;;2.00;;
8803;SDS011;4438;50.890;4.726;2023-07-29T14:02:33;3.10;;;2.20;;
8803;SDS011;4438;50.890;4.726;2023-07-29T14:05:00;2.10;;;2.00;;
8803;SDS011;4438;50.890;4.726;2023-07-29T14:07:26;3.00;;;2.17;;
8803;SDS011;4438;50.890;4.726;2023-07-29T14:09:52;2.00;;;1.90;;
8803;SDS011;4438;50.890;4.726;2023-07-29T14:12:18;2.50;;;2.20;;
8803;SDS011;4438;50.890;4.726;2023-07-29T14:14:44;2.72;;;2.22;;
8803;SDS011;4438;50.890;4.726;2023-07-29T14:17:10;2.40;;;2.20;;
8803;SDS011;4438;50.890;4.726;2023-07-29T14:19:36;2.10;;;2.00;;
8803;SDS011;4438;50.890;4.726;2023-07-29T14:22:02;2.83;;;2.20;;
8803;SDS011;4438;50.890;4.726;2023-07-29T14:24:29;2.20;;;2.10;;
8803;SDS011;4438;50.890;4.726;2023-07-29T14:26:55;2.23;;;2.10;;
8803;SDS011;4438;50.890;4.726;2023-07-29T14:29:21;2.37;;;2.17;;
8803;SDS011;4438;50.890;4.726;2023-07-29T14:31:47;2.20;;;2.10;;
8803;SDS011;4438;50.890;4.726;2023-07-29T14:34:13;2.20;;;2.10;;
8803;SDS011;4438;50.890;4.726;2023-07-29T14:36:39;2.13;;;1.93;;
8803;SDS011;4438;50.890;4.726;2023-07-29T14:39:05;2.00;;;1.80;;
8803;SDS011;4438;50.890;4.726;2023-07-29T14:41:31;1.87;;;1.73;;
8803;SDS011;4438;50.890;4.726;2023-07-29T14:43:57;1.80;;;1.70;;
8803;SDS011;4438;50.890;4.726;2023-07-29T14:46:23;1.67;;;1.58;;
8803;SDS011;4438;50.890;4.726;2023-07-29T14:48:49;1.90;;;1.80;;
8803;SDS011;4438;50.890;4.726;2023-07-29T14:51:16;1.80;;;1.70;;
8803;SDS011;4438;50.890;4.726;2023-07-29T14:53:42;1.63;;;1.53;;
8803;SDS011;4438;50.890;4.726;2023-07-29T14:56:08;1.90;;;1.70;;
8803;SDS011;4438;50.890;4.726;2023-07-29T14:58:34;1.75;;;1.65;;
8803;SDS011;4438;50.890;4.726;2023-07-29T15:01:00;1.70;;;1.60;;
8803;SDS011;4438;50.890;4.726;2023-07-29T15:03:26;1.75;;;1.65;;
8803;SDS011;4438;50.890;4.726;2023-07-29T15:05:52;1.67;;;1.58;;
8803;SDS011;4438;50.890;4.726;2023-07-29T15:08:18;1.58;;;1.48;;
8803;SDS011;4438;50.890;4.726;2023-07-29T15:10:45;1.60;;;1.50;;
8803;SDS011;4438;50.890;4.726;2023-07-29T15:13:11;1.60;;;1.50;;
8803;SDS011;4438;50.890;4.726;2023-07-29T15:15:41;3.15;;;1.58;;
8803;SDS011;4438;50.890;4.726;2023-07-29T15:18:07;1.70;;;1.60;;
8803;SDS011;4438;50.890;4.726;2023-07-29T15:20:34;1.60;;;1.50;;